createdAt,value
2023-03-19T00:12:52.060Z,14.91
2023-03-19T00:27:54.270Z,14.46
2023-03-19T00:42:57.543Z,13.72
2023-03-19T00:57:59.973Z,13.28
2023-03-19T01:13:02.389Z,12.93
2023-03-19T01:28:04.870Z,12.16
2023-03-19T01:43:07.242Z,11.34
2023-03-19T01:58:09.431Z,11.22
2023-03-19T02:13:11.735Z,10.96
2023-03-19T02:28:14.056Z,10.26
2023-03-19T02:43:16.344Z,10.09
2023-03-19T02:58:18.661Z,9.35
2023-03-19T03:13:20.902Z,9.2
2023-03-19T03:28:23.191Z,8.48
2023-03-19T03:43:25.419Z,7.77
2023-03-19T03:58:27.693Z,7.9
2023-03-19T04:13:29.989Z,7.25
2023-03-19T04:28:32.342Z,6.87
2023-03-19T04:43:34.763Z,6.61
2023-03-19T04:58:37.215Z,6.08
2023-03-19T05:13:39.395Z,5.84
2023-03-19T05:28:41.554Z,5.36
2023-03-19T05:43:43.850Z,5.43
2023-03-19T05:58:46.104Z,5.16
2023-03-19T06:13:48.408Z,5.1
2023-03-19T06:28:50.706Z,4.91
2023-03-19T06:43:52.962Z,4.77
2023-03-19T06:58:55.273Z,4.36
2023-03-19T07:13:57.508Z,4.02
2023-03-19T07:28:59.711Z,4.16
2023-03-19T07:44:01.960Z,4.02
2023-03-19T07:59:04.390Z,3.27
2023-03-19T08:14:06.640Z,3.51
2023-03-19T08:29:08.896Z,3.26
2023-03-19T08:44:11.148Z,3.12
2023-03-19T08:59:13.540Z,3.05
2023-03-19T09:14:15.873Z,2.86
2023-03-19T09:29:18.208Z,2.58
2023-03-19T09:44:20.480Z,2.51
2023-03-19T09:59:22.751Z,2.45
2023-03-19T10:14:25.069Z,2.54
2023-03-19T10:29:27.331Z,2.5
2023-03-19T10:44:29.571Z,2.3
2023-03-19T10:59:31.985Z,1.99
2023-03-19T11:14:34.288Z,1.78
2023-03-19T11:29:36.554Z,1.48
2023-03-19T11:44:38.807Z,1.48
2023-03-19T11:59:41.046Z,1.66
2023-03-19T12:14:43.389Z,1.81
2023-03-19T12:29:45.685Z,1.24
2023-03-19T12:44:47.952Z,1.42
2023-03-19T12:59:50.279Z,1.19
2023-03-19T13:14:52.720Z,1.32
2023-03-19T13:29:55.228Z,1.25
2023-03-19T13:44:57.577Z,1.08
2023-03-19T13:59:59.994Z,0.69
2023-03-19T14:15:02.457Z,0.92
2023-03-19T14:30:04.884Z,1.12
2023-03-19T14:45:07.272Z,1.06
2023-03-19T15:00:09.667Z,6.15
2023-03-19T15:15:12.160Z,4.99
2023-03-19T15:30:18.543Z,3.65
2023-03-19T15:45:21.016Z,4.24
2023-03-19T16:00:23.370Z,5.77
2023-03-19T16:15:25.994Z,6.62
2023-03-19T16:30:28.512Z,9.33
2023-03-19T16:45:31.191Z,11.04
2023-03-19T17:00:33.851Z,9.33
2023-03-19T17:15:36.617Z,8.71
2023-03-19T17:30:39.116Z,8.86
2023-03-19T17:45:41.431Z,9.36
2023-03-19T18:00:43.907Z,12.13
2023-03-19T18:15:46.493Z,12.59
2023-03-19T18:30:48.774Z,12.01
2023-03-19T18:45:51.081Z,11.89
2023-03-19T19:00:53.561Z,12
2023-03-19T19:15:55.963Z,12.41
2023-03-19T19:30:58.365Z,12.77
2023-03-19T19:46:00.749Z,13.24
2023-03-19T20:01:04.644Z,14.36
2023-03-19T20:16:07.190Z,15.37
2023-03-19T20:31:09.582Z,16.1
2023-03-19T20:46:11.980Z,16.67
2023-03-19T21:01:14.305Z,16.95
2023-03-19T21:16:16.674Z,17.13
2023-03-19T21:31:19.110Z,16.91
2023-03-19T21:46:24.823Z,15.85
2023-03-19T22:16:40.663Z,16.81
2023-03-19T22:31:42.973Z,17.39
2023-03-19T22:46:45.359Z,17.13
2023-03-19T23:01:47.711Z,17.57
2023-03-19T23:16:49.958Z,16.92
2023-03-19T23:31:52.239Z,16.59
2023-03-19T23:46:54.518Z,16.04
